Time;durP1;ratioP1;P1;durP2;ratioP2;P2;SDS_P1;SDS_P2;PMS_P1;PMS_P2;Temp;Humidity;BMP_temperature;BMP_pressure;BME280_temperature;BME280_humidity;BME280_pressure;Samples;Min_cycle;Max_cycle;Signal;HPM_P1;HPM_P2
2023/10/19 00:00:50;;;;;;;;;;;8.70;49.00;;;;;;5027599;27;114327;-79
2023/10/19 00:03:17;;;;;;;;;;;8.50;49.00;;;;;;5028005;27;115357;-79
2023/10/19 00:05:45;;;;;;;;;;;8.50;49.50;;;;;;5025323;28;114400;-79
2023/10/19 00:10:43;;;;;;;;;;;8.60;49.30;;;;;;5027454;28;114396;-79
2023/10/19 00:13:11;;;;;;;;;;;8.40;49.60;;;;;;5025904;27;114205;-79
2023/10/19 00:15:48;;;;;;;;;;;8.30;49.90;;;;;;5026586;28;115281;-80
2023/10/19 00:23:18;;;;;;;;;;;8.20;50.30;;;;;;5026361;28;114578;-79
2023/10/19 00:25:50;;;;;;;;;;;8.50;50.30;;;;;;5026387;28;114825;-79
2023/10/19 00:28:18;;;;;;;;;;;8.50;49.90;;;;;;5026362;28;115911;-78
2023/10/19 00:30:49;;;;;;;;;;;8.30;50.00;;;;;;5025877;27;114383;-79
2023/10/19 00:33:18;;;;;;;;;;;8.40;50.50;;;;;;5027230;28;114269;-79
2023/10/19 00:36:30;;;;;;;;;;;8.50;50.20;;;;;;5025006;28;114816;-79
2023/10/19 00:43:43;;;;;;;;;;;8.40;49.90;;;;;;5025799;28;114205;-80
2023/10/19 00:46:32;;;;;;;;;;;8.30;49.90;;;;;;5025684;28;115539;-80
2023/10/19 00:49:00;;;;;;;;;;;8.20;50.00;;;;;;5026224;28;114611;-80
2023/10/19 00:54:08;;;;;;;;;;;8.20;50.40;;;;;;5025271;28;114818;-79
2023/10/19 00:56:35;;;;;;;;;;;8.20;50.00;;;;;;5025262;28;114887;-80
2023/10/19 00:59:14;;;;;;;;;;;8.10;50.10;;;;;;5025747;28;115045;-80
2023/10/19 01:01:47;;;;;;;;;;;8.20;50.40;;;;;;5025631;28;114537;-79
2023/10/19 01:04:16;;;;;;;;;;;8.20;50.10;;;;;;5025785;28;114600;-80
2023/10/19 01:06:44;;;;;;;;;;;8.10;50.20;;;;;;5024588;28;114998;-79
2023/10/19 01:09:14;;;;;;;;;;;8.00;50.30;;;;;;5024568;28;115086;-79
2023/10/19 01:11:45;;;;;;;;;;;7.90;50.60;;;;;;5026169;27;114173;-79
2023/10/19 01:14:21;;;;;;;;;;;7.80;50.70;;;;;;5027178;27;114394;-79
2023/10/19 01:16:56;;;;;;;;;;;7.80;51.00;;;;;;5025353;27;116356;-79
2023/10/19 01:19:23;;;;;;;;;;;7.90;50.90;;;;;;5024183;28;115627;-79
2023/10/19 01:21:51;;;;;;;;;;;7.90;50.80;;;;;;5025877;28;114255;-79
2023/10/19 01:24:24;;;;;;;;;;;7.90;50.90;;;;;;5026314;27;114969;-80
2023/10/19 01:26:53;;;;;;;;;;;8.10;50.80;;;;;;5024649;27;114916;-80
2023/10/19 01:29:27;;;;;;;;;;;8.10;50.60;;;;;;5025426;28;114622;-80
2023/10/19 01:32:05;;;;;;;;;;;8.10;50.70;;;;;;5025007;28;114428;-79
2023/10/19 01:34:36;;;;;;;;;;;8.30;51.20;;;;;;5026150;28;114294;-80
2023/10/19 01:37:04;;;;;;;;;;;8.70;50.50;;;;;;5025352;28;114864;-79
2023/10/19 01:39:34;;;;;;;;;;;8.70;49.90;;;;;;5025597;28;114683;-79
2023/10/19 01:42:05;;;;;;;;;;;8.70;49.80;;;;;;5026352;27;114513;-79
2023/10/19 01:44:33;;;;;;;;;;;8.60;49.50;;;;;;5025830;27;114386;-78
2023/10/19 01:47:00;;;;;;;;;;;8.30;50.10;;;;;;5024373;28;114918;-78
2023/10/19 01:49:28;;;;;;;;;;;8.50;50.40;;;;;;5024953;28;114561;-79
2023/10/19 01:51:55;;;;;;;;;;;8.70;50.00;;;;;;5024812;28;114585;-79
2023/10/19 01:54:24;;;;;;;;;;;8.70;49.60;;;;;;5025019;28;114581;-79
2023/10/19 01:56:54;;;;;;;;;;;8.70;49.70;;;;;;5023678;28;115057;-80
2023/10/19 01:59:27;;;;;;;;;;;8.80;50.20;;;;;;5023598;28;114743;-79
2023/10/19 02:01:54;;;;;;;;;;;9.00;49.80;;;;;;5008117;28;114521;-80
2023/10/19 02:04:23;;;;;;;;;;;9.00;49.30;;;;;;5024967;28;114564;-79
2023/10/19 02:06:52;;;;;;;;;;;8.90;49.10;;;;;;5006707;28;114912;-79
2023/10/19 02:09:23;;;;;;;;;;;8.90;49.50;;;;;;5024170;28;114638;-79
2023/10/19 02:11:58;;;;;;;;;;;8.90;49.60;;;;;;5007332;28;114567;-78
2023/10/19 02:14:31;;;;;;;;;;;9.00;49.20;;;;;;5024641;27;114358;-78
2023/10/19 02:16:59;;;;;;;;;;;8.90;49.40;;;;;;5024659;28;115048;-79
2023/10/19 02:19:28;;;;;;;;;;;9.00;50.00;;;;;;5023477;28;114592;-79
2023/10/19 02:21:59;;;;;;;;;;;9.20;49.90;;;;;;5024578;28;115141;-79
2023/10/19 02:24:26;;;;;;;;;;;9.50;48.60;;;;;;4991194;28;114714;-79
2023/10/19 02:26:55;;;;;;;;;;;9.40;49.30;;;;;;5025047;28;114886;-79
2023/10/19 02:29:22;;;;;;;;;;;9.50;49.20;;;;;;5025106;28;114710;-79
2023/10/19 02:31:53;;;;;;;;;;;9.50;47.90;;;;;;5025534;27;114473;-79
2023/10/19 02:34:20;;;;;;;;;;;9.20;48.00;;;;;;5024143;28;114223;-79
2023/10/19 02:36:47;;;;;;;;;;;8.90;48.60;;;;;;5023396;27;115085;-79
2023/10/19 02:39:16;;;;;;;;;;;8.90;48.90;;;;;;5026826;28;114936;-80
2023/10/19 02:41:44;;;;;;;;;;;8.70;48.70;;;;;;5027911;28;114603;-79
2023/10/19 02:46:46;;;;;;;;;;;8.60;49.40;;;;;;5026115;28;115081;-80
2023/10/19 02:49:13;;;;;;;;;;;8.70;48.60;;;;;;5010341;28;114579;-80
2023/10/19 02:51:44;;;;;;;;;;;8.60;49.30;;;;;;5027946;28;115101;-80
2023/10/19 02:54:33;;;;;;;;;;;8.70;49.50;;;;;;5028283;27;114532;-80
2023/10/19 02:57:06;;;;;;;;;;;9.00;49.80;;;;;;5026520;28;115160;-80
2023/10/19 02:59:33;;;;;;;;;;;9.40;49.80;;;;;;5010007;28;116683;-79
2023/10/19 03:02:01;;;;;;;;;;;9.70;49.60;;;;;;5028007;28;114466;-79
2023/10/19 03:04:29;;;;;;;;;;;9.80;49.10;;;;;;5028335;27;114511;-80
2023/10/19 03:06:57;;;;;;;;;;;9.90;48.90;;;;;;5026494;28;114990;-80
2023/10/19 03:11:59;;;;;;;;;;;9.80;47.80;;;;;;5028421;27;114321;-81
2023/10/19 03:14:26;;;;;;;;;;;9.70;48.10;;;;;;5027533;28;114674;-79
2023/10/19 03:16:56;;;;;;;;;;;9.70;48.50;;;;;;5027310;28;115929;-80
2023/10/19 03:19:27;;;;;;;;;;;9.70;48.70;;;;;;5010220;28;114778;-80
2023/10/19 03:21:55;;;;;;;;;;;9.70;49.00;;;;;;5028109;28;114554;-80
2023/10/19 03:24:23;;;;;;;;;;;9.80;48.80;;;;;;5028143;27;114429;-80
2023/10/19 03:26:50;;;;;;;;;;;9.80;48.10;;;;;;5025155;28;115108;-80
2023/10/19 03:29:31;;;;;;;;;;;9.70;48.20;;;;;;5025833;28;114521;-80
2023/10/19 03:31:59;;;;;;;;;;;9.50;48.20;;;;;;5027729;28;114531;-80
2023/10/19 03:34:26;;;;;;;;;;;9.40;48.90;;;;;;5027773;28;114588;-79
2023/10/19 03:36:54;;;;;;;;;;;9.60;48.90;;;;;;5026841;28;114929;-80
2023/10/19 03:39:21;;;;;;;;;;;9.70;49.10;;;;;;5009342;28;114547;-80
2023/10/19 03:41:51;;;;;;;;;;;9.70;48.40;;;;;;5009872;28;114487;-78
2023/10/19 03:44:25;;;;;;;;;;;9.60;48.20;;;;;;5026742;28;114932;-78
2023/10/19 03:47:04;;;;;;;;;;;9.50;48.70;;;;;;5026493;28;114939;-79
2023/10/19 03:49:36;;;;;;;;;;;9.30;48.70;;;;;;5009363;28;114938;-79
2023/10/19 03:54:40;;;;;;;;;;;9.00;49.60;;;;;;5027160;27;114450;-80
2023/10/19 03:57:19;;;;;;;;;;;9.10;49.50;;;;;;5026460;28;115264;-80
2023/10/19 03:59:46;;;;;;;;;;;9.10;49.50;;;;;;5010339;28;114994;-80
2023/10/19 04:02:14;;;;;;;;;;;8.90;49.70;;;;;;5009636;28;114386;-81
2023/10/19 04:04:48;;;;;;;;;;;8.90;49.80;;;;;;5027416;28;114298;-80
2023/10/19 04:07:21;;;;;;;;;;;8.70;50.20;;;;;;5026820;28;115344;-79
2023/10/19 04:12:38;;;;;;;;;;;8.60;50.80;;;;;;5026043;28;114567;-78
2023/10/19 04:15:18;;;;;;;;;;;8.50;51.20;;;;;;5024443;28;114591;-79
2023/10/19 04:17:46;;;;;;;;;;;8.50;51.10;;;;;;5022195;28;116489;-80
2023/10/19 04:20:26;;;;;;;;;;;8.50;51.50;;;;;;5024258;27;115049;-80
2023/10/19 04:22:53;;;;;;;;;;;8.40;51.90;;;;;;5007253;28;115116;-78
2023/10/19 04:25:25;;;;;;;;;;;8.30;52.00;;;;;;5011867;28;115020;-78
2023/10/19 04:27:52;;;;;;;;;;;8.30;51.90;;;;;;5022592;28;115421;-78
2023/10/19 04:30:22;;;;;;;;;;;8.40;51.70;;;;;;5021143;28;114728;-78
2023/10/19 04:32:50;;;;;;;;;;;8.50;51.90;;;;;;5016573;28;114530;-79
2023/10/19 04:35:24;;;;;;;;;;;8.60;51.90;;;;;;5023705;28;114616;-79
2023/10/19 04:37:54;;;;;;;;;;;8.80;51.90;;;;;;5024463;28;115501;-80
2023/10/19 04:40:22;;;;;;;;;;;9.00;51.50;;;;;;5020239;27;114724;-79
2023/10/19 04:42:50;;;;;;;;;;;9.00;51.40;;;;;;5004887;28;114585;-80
2023/10/19 04:45:17;;;;;;;;;;;9.10;51.40;;;;;;5006288;28;114597;-79
2023/10/19 04:47:45;;;;;;;;;;;9.20;51.50;;;;;;5007543;28;114914;-80
2023/10/19 04:50:13;;;;;;;;;;;9.30;51.30;;;;;;5010122;28;114912;-79
2023/10/19 04:52:40;;;;;;;;;;;9.50;51.30;;;;;;5016090;28;114524;-78
2023/10/19 04:55:07;;;;;;;;;;;9.50;50.80;;;;;;5015539;28;114555;-79
2023/10/19 04:57:34;;;;;;;;;;;9.40;51.00;;;;;;5013108;28;114887;-80
2023/10/19 05:00:03;;;;;;;;;;;9.50;51.20;;;;;;5013770;28;114585;-79
2023/10/19 05:02:30;;;;;;;;;;;9.50;51.20;;;;;;5011217;27;115325;-78
2023/10/19 05:04:57;;;;;;;;;;;9.50;51.20;;;;;;5013044;28;114641;-78
2023/10/19 05:07:24;;;;;;;;;;;9.40;51.20;;;;;;5013513;28;115442;-77
2023/10/19 05:09:53;;;;;;;;;;;9.40;51.40;;;;;;5012971;28;114809;-78
2023/10/19 05:12:21;;;;;;;;;;;9.20;51.60;;;;;;5006168;28;114301;-79
2023/10/19 05:14:48;;;;;;;;;;;9.20;51.70;;;;;;5014739;27;114429;-79
2023/10/19 05:17:15;;;;;;;;;;;9.20;52.40;;;;;;5015100;28;115717;-80
2023/10/19 05:19:44;;;;;;;;;;;9.10;52.10;;;;;;5012424;28;114893;-80
2023/10/19 05:22:11;;;;;;;;;;;9.10;52.10;;;;;;5014466;27;114457;-79
2023/10/19 05:24:38;;;;;;;;;;;9.20;52.30;;;;;;5011551;28;114415;-81
2023/10/19 05:27:05;;;;;;;;;;;9.10;52.80;;;;;;5013940;28;114859;-81
2023/10/19 05:29:35;;;;;;;;;;;9.00;53.30;;;;;;5003652;28;115085;-80
2023/10/19 05:32:03;;;;;;;;;;;8.90;53.50;;;;;;5004012;28;114224;-80
2023/10/19 05:34:32;;;;;;;;;;;8.80;53.50;;;;;;4988397;28;115080;-79
2023/10/19 05:37:02;;;;;;;;;;;8.70;53.40;;;;;;5003209;28;114904;-79
2023/10/19 05:39:31;;;;;;;;;;;8.80;54.60;;;;;;5004670;28;114663;-81
2023/10/19 05:42:01;;;;;;;;;;;8.80;54.00;;;;;;5011533;28;115164;-80
2023/10/19 05:44:30;;;;;;;;;;;8.80;53.90;;;;;;5014297;28;114541;-81
2023/10/19 05:47:00;;;;;;;;;;;8.80;54.10;;;;;;5005878;28;114969;-79
2023/10/19 05:49:30;;;;;;;;;;;8.80;54.40;;;;;;5005526;28;115022;-81
2023/10/19 05:51:57;;;;;;;;;;;8.80;54.80;;;;;;5005236;28;114458;-80
2023/10/19 05:54:24;;;;;;;;;;;8.70;54.60;;;;;;5006496;28;115758;-82
2023/10/19 05:56:54;;;;;;;;;;;8.70;55.10;;;;;;5003690;28;114819;-81
2023/10/19 05:59:23;;;;;;;;;;;8.70;55.50;;;;;;5003416;28;115229;-82
2023/10/19 06:01:51;;;;;;;;;;;8.70;55.20;;;;;;5004528;28;114992;-81
2023/10/19 06:04:20;;;;;;;;;;;8.80;55.90;;;;;;5023541;28;114509;-80
2023/10/19 06:06:48;;;;;;;;;;;8.90;55.00;;;;;;5024500;28;116216;-81
2023/10/19 06:09:16;;;;;;;;;;;9.10;55.60;;;;;;5017391;28;114627;-80
2023/10/19 06:11:44;;;;;;;;;;;9.20;55.00;;;;;;5016840;27;114384;-79
2023/10/19 06:14:11;;;;;;;;;;;9.20;54.80;;;;;;5009327;28;114422;-81
2023/10/19 06:16:38;;;;;;;;;;;9.30;54.80;;;;;;5008173;28;115496;-79
2023/10/19 06:19:06;;;;;;;;;;;9.40;55.30;;;;;;5010192;28;115080;-80
2023/10/19 06:21:34;;;;;;;;;;;9.50;54.90;;;;;;5008392;28;114328;-79
2023/10/19 06:24:02;;;;;;;;;;;9.60;54.80;;;;;;5008928;28;114685;-79
2023/10/19 06:26:30;;;;;;;;;;;9.70;54.70;;;;;;5008044;28;114876;-79
2023/10/19 06:28:59;;;;;;;;;;;9.80;54.60;;;;;;5006916;28;114913;-81
2023/10/19 06:31:28;;;;;;;;;;;10.00;54.80;;;;;;5021899;28;114466;-81
2023/10/19 06:33:57;;;;;;;;;;;10.00;55.00;;;;;;5028648;28;115277;-81
2023/10/19 06:36:24;;;;;;;;;;;10.00;54.40;;;;;;5027641;28;115009;-82
2023/10/19 06:38:51;;;;;;;;;;;10.10;54.70;;;;;;5027699;28;115788;-80
2023/10/19 06:41:18;;;;;;;;;;;10.10;55.60;;;;;;5028482;28;114467;-81
2023/10/19 06:43:46;;;;;;;;;;;10.10;55.00;;;;;;5026916;28;115321;-81
2023/10/19 06:46:14;;;;;;;;;;;10.10;55.20;;;;;;5025481;28;114999;-81
2023/10/19 06:48:42;;;;;;;;;;;10.20;55.50;;;;;;5006224;28;117095;-80
2023/10/19 06:51:09;;;;;;;;;;;10.20;55.00;;;;;;5006945;28;114528;-80
2023/10/19 06:53:37;;;;;;;;;;;10.50;55.00;;;;;;5026086;28;114450;-81
2023/10/19 06:56:04;;;;;;;;;;;10.70;55.10;;;;;;5026703;28;114924;-81
2023/10/19 06:58:31;;;;;;;;;;;10.70;55.10;;;;;;5021693;28;114682;-81
2023/10/19 07:01:07;;;;;;;;;;;10.70;55.30;;;;;;5008129;27;114438;-80
2023/10/19 07:03:35;;;;;;;;;;;10.70;55.30;;;;;;5014650;28;114421;-81
2023/10/19 07:06:02;;;;;;;;;;;10.70;55.40;;;;;;5027424;28;114903;-81
2023/10/19 07:08:35;;;;;;;;;;;10.70;56.20;;;;;;5026650;28;114632;-81
2023/10/19 07:11:02;;;;;;;;;;;10.70;56.10;;;;;;5027776;28;114585;-81
2023/10/19 07:13:32;;;;;;;;;;;10.60;56.30;;;;;;5026699;28;114254;-80
2023/10/19 07:16:00;;;;;;;;;;;10.60;57.10;;;;;;5013727;27;114900;-81
2023/10/19 07:18:28;;;;;;;;;;;10.50;57.00;;;;;;4997978;28;114901;-81
2023/10/19 07:21:03;;;;;;;;;;;10.50;57.30;;;;;;5024265;28;115222;-80
2023/10/19 07:23:30;;;;;;;;;;;10.60;57.90;;;;;;5026283;28;114494;-80
2023/10/19 07:26:00;;;;;;;;;;;10.60;57.90;;;;;;5035680;27;116125;-80
2023/10/19 07:28:28;;;;;;;;;;;10.60;57.80;;;;;;5017504;28;114573;-80
2023/10/19 07:30:55;;;;;;;;;;;10.70;57.80;;;;;;5027216;28;114322;-81
2023/10/19 07:33:30;;;;;;;;;;;10.80;57.20;;;;;;5026714;28;114438;-81
2023/10/19 07:36:06;;;;;;;;;;;10.90;57.20;;;;;;5019744;27;115050;-79
2023/10/19 07:38:34;;;;;;;;;;;11.00;57.00;;;;;;5007023;28;115219;-81
2023/10/19 07:41:05;;;;;;;;;;;11.00;57.30;;;;;;5006213;28;114293;-81
2023/10/19 07:43:33;;;;;;;;;;;10.90;57.60;;;;;;5007838;28;114102;-80
2023/10/19 07:46:01;;;;;;;;;;;10.90;58.70;;;;;;5011903;28;114845;-81
2023/10/19 07:48:31;;;;;;;;;;;10.80;57.70;;;;;;5022086;28;114762;-81
2023/10/19 07:50:58;;;;;;;;;;;10.90;57.50;;;;;;5021973;28;114524;-81
2023/10/19 07:53:26;;;;;;;;;;;11.00;57.80;;;;;;5007762;28;114370;-80
2023/10/19 07:55:53;;;;;;;;;;;11.00;57.90;;;;;;5017496;28;117013;-80
2023/10/19 07:58:20;;;;;;;;;;;11.00;57.60;;;;;;5025132;27;116647;-81
2023/10/19 08:00:47;;;;;;;;;;;11.20;57.30;;;;;;5016609;27;114602;-81
2023/10/19 08:03:16;;;;;;;;;;;11.20;57.70;;;;;;5010219;28;114422;-80
2023/10/19 08:05:43;;;;;;;;;;;11.20;57.20;;;;;;5006060;28;115377;-80
2023/10/19 08:08:12;;;;;;;;;;;11.20;57.90;;;;;;5014552;28;114905;-81
2023/10/19 08:10:39;;;;;;;;;;;11.20;58.10;;;;;;5008372;28;114332;-81
2023/10/19 08:13:07;;;;;;;;;;;11.20;58.00;;;;;;5011673;28;114785;-81
2023/10/19 08:15:34;;;;;;;;;;;11.10;58.30;;;;;;5010024;28;114851;-79
2023/10/19 08:18:01;;;;;;;;;;;11.10;59.10;;;;;;5026150;28;114631;-79
2023/10/19 08:20:31;;;;;;;;;;;11.00;58.50;;;;;;5018683;27;114509;-80
2023/10/19 08:23:01;;;;;;;;;;;11.00;59.00;;;;;;5005627;28;114497;-80
2023/10/19 08:25:29;;;;;;;;;;;11.00;59.40;;;;;;5005435;28;115212;-80
2023/10/19 08:28:16;;;;;;;;;;;11.00;59.00;;;;;;5008577;28;114511;-81
2023/10/19 08:30:56;;;;;;;;;;;11.00;59.50;;;;;;5025602;28;114260;-79
2023/10/19 08:33:26;;;;;;;;;;;11.00;60.20;;;;;;4995229;28;114437;-81
2023/10/19 08:35:54;;;;;;;;;;;11.00;59.30;;;;;;5018636;27;114965;-81
2023/10/19 08:38:23;;;;;;;;;;;11.10;60.80;;;;;;5000150;28;114705;-81
2023/10/19 08:40:50;;;;;;;;;;;11.10;60.90;;;;;;5005298;28;114688;-81
2023/10/19 08:43:28;;;;;;;;;;;11.00;60.50;;;;;;5005573;28;114577;-79
2023/10/19 08:45:55;;;;;;;;;;;11.00;59.80;;;;;;5005264;28;115166;-79
2023/10/19 08:48:23;;;;;;;;;;;11.10;60.40;;;;;;5012839;28;114512;-80
2023/10/19 08:50:50;;;;;;;;;;;11.20;60.70;;;;;;5024865;28;114351;-80
2023/10/19 08:53:19;;;;;;;;;;;11.20;60.00;;;;;;5019137;27;114461;-80
2023/10/19 08:55:48;;;;;;;;;;;11.20;59.70;;;;;;4988241;28;114846;-80
2023/10/19 08:58:17;;;;;;;;;;;11.20;59.90;;;;;;5019410;28;115469;-79
2023/10/19 09:00:53;;;;;;;;;;;11.30;59.80;;;;;;4991385;28;114514;-81
2023/10/19 09:03:21;;;;;;;;;;;11.30;59.50;;;;;;5015290;27;114426;-80
2023/10/19 09:05:50;;;;;;;;;;;11.40;59.50;;;;;;5024286;28;115875;-80
2023/10/19 09:08:19;;;;;;;;;;;11.40;60.80;;;;;;5024510;28;116615;-80
2023/10/19 09:10:48;;;;;;;;;;;11.40;59.80;;;;;;5024813;28;114297;-80
2023/10/19 09:13:18;;;;;;;;;;;11.50;59.50;;;;;;5008454;28;114349;-80
2023/10/19 09:15:55;;;;;;;;;;;11.60;59.20;;;;;;5014043;28;114899;-81
2023/10/19 09:18:24;;;;;;;;;;;11.70;58.70;;;;;;5004225;28;114629;-81
2023/10/19 09:21:25;;;;;;;;;;;11.90;58.40;;;;;;5004607;28;114496;-81
2023/10/19 09:23:48;;;;;;;;;;;12.00;58.20;;;;;;5017206;28;114793;-80
2023/10/19 09:26:16;;;;;;;;;;;12.10;57.90;;;;;;5024168;27;114796;-81
2023/10/19 09:28:48;;;;;;;;;;;12.20;57.80;;;;;;5025106;28;114948;-81
2023/10/19 09:31:16;;;;;;;;;;;12.20;57.60;;;;;;5023389;28;115224;-81
2023/10/19 09:33:43;;;;;;;;;;;12.30;57.40;;;;;;5013133;28;116960;-81
2023/10/19 09:36:14;;;;;;;;;;;12.40;57.20;;;;;;5021018;28;115273;-81
2023/10/19 09:38:51;;;;;;;;;;;12.50;56.90;;;;;;5020295;28;115749;-81
2023/10/19 09:41:22;;;;;;;;;;;12.60;56.70;;;;;;5021527;27;114428;-82
2023/10/19 09:43:50;;;;;;;;;;;12.60;56.70;;;;;;5005587;28;114510;-81
2023/10/19 09:46:26;;;;;;;;;;;12.50;56.70;;;;;;4995418;28;116814;-80
2023/10/19 09:48:56;;;;;;;;;;;12.50;56.80;;;;;;5003659;28;114610;-81
2023/10/19 09:51:26;;;;;;;;;;;12.60;56.80;;;;;;4999404;28;114707;-81
2023/10/19 09:53:54;;;;;;;;;;;12.50;56.70;;;;;;5004288;28;114657;-81
2023/10/19 09:56:25;;;;;;;;;;;12.50;56.80;;;;;;5013609;28;114739;-81
2023/10/19 09:58:55;;;;;;;;;;;12.40;56.80;;;;;;5025039;28;114789;-80
2023/10/19 10:01:23;;;;;;;;;;;12.30;56.90;;;;;;5025714;28;114342;-81
2023/10/19 10:03:53;;;;;;;;;;;12.30;56.90;;;;;;5024541;27;114426;-81
2023/10/19 10:06:30;;;;;;;;;;;12.30;56.90;;;;;;5001577;28;115207;-80
2023/10/19 10:08:59;;;;;;;;;;;12.30;56.90;;;;;;5003320;28;115136;-81
2023/10/19 10:11:26;;;;;;;;;;;12.20;56.90;;;;;;5005492;28;114561;-81
2023/10/19 10:13:54;;;;;;;;;;;12.30;57.00;;;;;;5004558;28;114817;-81
2023/10/19 10:16:28;;;;;;;;;;;12.30;56.90;;;;;;5002849;28;115988;-80
2023/10/19 10:19:00;;;;;;;;;;;12.30;57.00;;;;;;5004018;28;114584;-81
2023/10/19 10:21:28;;;;;;;;;;;12.30;57.00;;;;;;5003575;28;114336;-80
2023/10/19 10:24:00;;;;;;;;;;;12.30;56.90;;;;;;5012746;27;114530;-81
2023/10/19 10:26:29;;;;;;;;;;;12.40;56.90;;;;;;5023173;27;115226;-80
2023/10/19 10:29:27;;;;;;;;;;;12.40;56.80;;;;;;5024228;28;114522;-80
2023/10/19 10:32:05;;;;;;;;;;;12.40;56.80;;;;;;5024393;28;114603;-80
2023/10/19 10:34:49;;;;;;;;;;;12.50;56.60;;;;;;5023438;28;114415;-80
2023/10/19 10:37:16;;;;;;;;;;;12.60;56.50;;;;;;5023812;28;115447;-79
2023/10/19 10:39:44;;;;;;;;;;;12.70;56.40;;;;;;5023689;27;114556;-80
2023/10/19 10:42:16;;;;;;;;;;;12.70;56.30;;;;;;5023841;27;114515;-80
2023/10/19 10:44:45;;;;;;;;;;;12.80;56.30;;;;;;5015638;28;114549;-80
2023/10/19 10:47:22;;;;;;;;;;;12.80;56.40;;;;;;5003258;28;115109;-79
2023/10/19 10:49:49;;;;;;;;;;;12.90;56.20;;;;;;5003732;28;115075;-81
2023/10/19 10:52:24;;;;;;;;;;;12.90;56.20;;;;;;5009206;28;114337;-81
2023/10/19 10:54:52;;;;;;;;;;;12.90;56.30;;;;;;5014180;28;114645;-81
2023/10/19 10:57:20;;;;;;;;;;;12.80;56.40;;;;;;5018532;28;115136;-81
2023/10/19 11:00:20;;;;;;;;;;;12.80;56.40;;;;;;5007341;28;114864;-82
2023/10/19 11:03:09;;;;;;;;;;;12.80;56.60;;;;;;5007057;28;114476;-82
2023/10/19 11:05:45;;;;;;;;;;;12.90;57.70;;;;;;5007946;28;114461;-82
2023/10/19 11:08:18;;;;;;;;;;;12.80;57.30;;;;;;5006501;28;114973;-81
2023/10/19 11:10:48;;;;;;;;;;;12.70;58.70;;;;;;5006594;28;114832;-81
2023/10/19 11:13:18;;;;;;;;;;;12.50;59.00;;;;;;5006349;28;114393;-79
2023/10/19 11:15:53;;;;;;;;;;;12.40;58.60;;;;;;5008015;28;114524;-81
2023/10/19 11:18:35;;;;;;;;;;;12.40;59.00;;;;;;5008407;28;114973;-81
2023/10/19 11:21:11;;;;;;;;;;;12.30;59.80;;;;;;5005234;28;116577;-81
2023/10/19 11:23:39;;;;;;;;;;;12.20;60.20;;;;;;5005822;28;114544;-80
2023/10/19 11:26:07;;;;;;;;;;;12.20;60.80;;;;;;5009727;28;114309;-80
2023/10/19 11:28:38;;;;;;;;;;;12.20;60.50;;;;;;5013958;28;114834;-80
2023/10/19 11:31:13;;;;;;;;;;;12.20;61.40;;;;;;5004939;28;114541;-80
2023/10/19 11:33:43;;;;;;;;;;;12.20;60.60;;;;;;5025894;28;114557;-79
2023/10/19 11:36:12;;;;;;;;;;;12.30;61.40;;;;;;5026107;27;114296;-81
2023/10/19 11:38:44;;;;;;;;;;;12.40;62.50;;;;;;5024758;28;114809;-82
2023/10/19 11:41:13;;;;;;;;;;;12.40;61.50;;;;;;4993186;28;115011;-81
2023/10/19 11:43:44;;;;;;;;;;;12.50;62.10;;;;;;5014793;28;114509;-81
2023/10/19 11:46:11;;;;;;;;;;;12.60;61.20;;;;;;5016831;28;114391;-81
2023/10/19 11:48:39;;;;;;;;;;;12.60;61.10;;;;;;5015508;28;115370;-81
2023/10/19 11:51:09;;;;;;;;;;;12.70;61.10;;;;;;5002171;28;115035;-81
2023/10/19 11:53:36;;;;;;;;;;;12.80;61.10;;;;;;5010422;28;114279;-81
2023/10/19 11:56:05;;;;;;;;;;;12.80;61.80;;;;;;5007422;28;114340;-81
2023/10/19 11:58:34;;;;;;;;;;;12.80;61.10;;;;;;5006127;28;115509;-81
2023/10/19 12:01:05;;;;;;;;;;;12.80;61.40;;;;;;5006241;28;114837;-81
2023/10/19 12:03:35;;;;;;;;;;;12.90;61.10;;;;;;5007602;28;114558;-81
2023/10/19 12:06:06;;;;;;;;;;;13.00;60.80;;;;;;4988823;28;114431;-81
2023/10/19 12:08:34;;;;;;;;;;;13.10;60.50;;;;;;5005801;28;116453;-81
2023/10/19 12:11:03;;;;;;;;;;;13.10;60.40;;;;;;5036260;27;114664;-80
2023/10/19 12:13:31;;;;;;;;;;;13.20;60.40;;;;;;5026613;27;114342;-81
2023/10/19 12:16:04;;;;;;;;;;;13.20;60.70;;;;;;5008141;28;114676;-81
2023/10/19 12:18:32;;;;;;;;;;;13.10;61.40;;;;;;5035404;27;114945;-81
2023/10/19 12:21:07;;;;;;;;;;;13.10;60.80;;;;;;5005809;28;115124;-80
2023/10/19 12:23:50;;;;;;;;;;;13.00;60.80;;;;;;5007156;28;114631;-81
2023/10/19 12:29:35;;;;;;;;;;;13.00;61.20;;;;;;4753137;24;116010;-82
2023/10/19 12:32:03;;;;;;;;;;;12.90;61.90;;;;;;4649429;30;114614;-79
2023/10/19 12:34:34;;;;;;;;;;;12.80;62.20;;;;;;4650468;30;114649;-81
2023/10/19 12:37:03;;;;;;;;;;;12.80;62.50;;;;;;4651750;30;114238;-83
2023/10/19 12:39:48;;;;;;;;;;;12.70;62.00;;;;;;4651641;30;114938;-81
2023/10/19 12:42:17;;;;;;;;;;;12.70;62.20;;;;;;4650897;30;114787;-81
2023/10/19 12:44:44;;;;;;;;;;;12.70;61.80;;;;;;4667630;30;114582;-80
2023/10/19 12:47:17;;;;;;;;;;;12.70;61.80;;;;;;4637641;30;114744;-82
2023/10/19 12:49:57;;;;;;;;;;;12.70;61.70;;;;;;4661151;30;115521;-82
2023/10/19 12:52:24;;;;;;;;;;;12.80;61.40;;;;;;4647398;30;114629;-81
2023/10/19 12:54:58;;;;;;;;;;;12.90;61.20;;;;;;4637349;30;114668;-80
2023/10/19 12:57:27;;;;;;;;;;;12.90;61.10;;;;;;4636021;30;114827;-81
2023/10/19 12:59:55;;;;;;;;;;;12.90;61.00;;;;;;4641453;30;115131;-82
2023/10/19 13:02:30;;;;;;;;;;;13.00;60.80;;;;;;4633515;30;115374;-82
2023/10/19 13:05:05;;;;;;;;;;;13.00;60.60;;;;;;4635051;30;114397;-80
2023/10/19 13:07:34;;;;;;;;;;;13.00;60.50;;;;;;4634202;30;114586;-80
2023/10/19 13:10:05;;;;;;;;;;;13.10;60.40;;;;;;4634726;30;115369;-80
2023/10/19 13:12:36;;;;;;;;;;;13.10;60.30;;;;;;4649847;30;114773;-81
2023/10/19 13:15:12;;;;;;;;;;;13.10;60.20;;;;;;4637838;30;114612;-81
2023/10/19 13:17:41;;;;;;;;;;;13.20;60.20;;;;;;4652624;30;114399;-81
2023/10/19 13:20:18;;;;;;;;;;;13.20;60.10;;;;;;4664121;30;115470;-81
2023/10/19 13:22:47;;;;;;;;;;;13.20;60.40;;;;;;4637283;30;115939;-80
2023/10/19 13:25:38;;;;;;;;;;;13.20;60.10;;;;;;4680219;30;114602;-81
2023/10/19 13:28:08;;;;;;;;;;;13.20;60.90;;;;;;4664811;30;114479;-80
2023/10/19 13:30:39;;;;;;;;;;;13.00;61.20;;;;;;4660279;30;115250;-81
2023/10/19 13:33:09;;;;;;;;;;;13.00;62.60;;;;;;4648846;30;114671;-79
2023/10/19 13:35:37;;;;;;;;;;;12.80;63.10;;;;;;4651229;30;114715;-82
2023/10/19 13:38:05;;;;;;;;;;;12.70;64.30;;;;;;4652191;30;114658;-80
2023/10/19 13:40:37;;;;;;;;;;;12.50;64.10;;;;;;4649162;30;115580;-83
2023/10/19 13:43:07;;;;;;;;;;;12.40;64.10;;;;;;4630442;30;115353;-80
2023/10/19 13:45:56;;;;;;;;;;;12.40;64.30;;;;;;4646996;30;115597;-80
2023/10/19 13:48:27;;;;;;;;;;;12.30;64.30;;;;;;4626669;30;114648;-80
2023/10/19 13:51:12;;;;;;;;;;;12.40;64.70;;;;;;4632750;30;115077;-80
2023/10/19 13:53:41;;;;;;;;;;;12.30;65.40;;;;;;4640277;30;114876;-80
2023/10/19 13:56:16;;;;;;;;;;;12.20;64.50;;;;;;4642530;30;114493;-81
2023/10/19 13:58:46;;;;;;;;;;;12.30;64.60;;;;;;4631569;30;114379;-80
2023/10/19 14:01:14;;;;;;;;;;;12.30;64.30;;;;;;4631861;30;115183;-81
2023/10/19 14:03:45;;;;;;;;;;;12.30;64.60;;;;;;4644232;30;115045;-80
2023/10/19 14:06:14;;;;;;;;;;;12.20;65.10;;;;;;4632834;30;114503;-79
2023/10/19 14:08:42;;;;;;;;;;;12.20;65.30;;;;;;4646753;30;114590;-81
2023/10/19 14:11:10;;;;;;;;;;;12.20;65.90;;;;;;4631649;30;116357;-81
2023/10/19 14:13:43;;;;;;;;;;;12.20;66.10;;;;;;4649275;30;115474;-81
2023/10/19 14:16:12;;;;;;;;;;;12.10;66.20;;;;;;4652052;30;114679;-81
2023/10/19 14:18:40;;;;;;;;;;;12.10;65.90;;;;;;4621893;30;114608;-81
2023/10/19 14:21:14;;;;;;;;;;;12.10;65.90;;;;;;4635344;30;115079;-81
2023/10/19 14:23:50;;;;;;;;;;;12.20;65.40;;;;;;4662825;30;116340;-82
2023/10/19 14:26:20;;;;;;;;;;;12.20;65.20;;;;;;4651940;30;114529;-81
2023/10/19 14:28:50;;;;;;;;;;;12.20;65.80;;;;;;4664138;30;114891;-82
2023/10/19 14:31:20;;;;;;;;;;;12.20;65.20;;;;;;4663953;30;114953;-81
2023/10/19 14:33:48;;;;;;;;;;;12.20;65.10;;;;;;4654230;30;115548;-80
2023/10/19 14:36:19;;;;;;;;;;;12.30;65.40;;;;;;4654861;30;114636;-80
2023/10/19 14:38:57;;;;;;;;;;;12.30;65.70;;;;;;4654047;30;114534;-82
2023/10/19 14:41:26;;;;;;;;;;;12.30;65.50;;;;;;4638308;30;117813;-80
2023/10/19 14:43:59;;;;;;;;;;;12.40;65.10;;;;;;4667504;30;115362;-80
2023/10/19 14:46:40;;;;;;;;;;;12.30;65.80;;;;;;4619633;30;114622;-81
2023/10/19 14:49:19;;;;;;;;;;;12.30;65.50;;;;;;4647875;30;114767;-80
2023/10/19 14:51:47;;;;;;;;;;;12.30;66.10;;;;;;4634386;30;115483;-81
2023/10/19 14:54:17;;;;;;;;;;;12.20;66.60;;;;;;4634520;30;114827;-80
2023/10/19 14:56:44;;;;;;;;;;;12.20;66.00;;;;;;4634975;30;114636;-81